sensor_id;sensor_type;location;lat;lon;timestamp;P1;durP1;ratioP1;P2;durP2;ratioP2
61590;SDS011;71994;52.410;-1.966;2023-09-07T00:00:01;10.15;;;8.40;;
61590;SDS011;71994;52.410;-1.966;2023-09-07T00:03:11;11.73;;;8.63;;
61590;SDS011;71994;52.410;-1.966;2023-09-07T00:06:18;10.55;;;8.75;;
61590;SDS011;71994;52.410;-1.966;2023-09-07T00:09:27;11.32;;;8.73;;
61590;SDS011;71994;52.410;-1.966;2023-09-07T00:12:33;11.20;;;8.48;;
61590;SDS011;71994;52.410;-1.966;2023-09-07T00:15:46;10.20;;;8.73;;
61590;SDS011;71994;52.410;-1.966;2023-09-07T00:18:52;11.35;;;8.95;;
61590;SDS011;71994;52.410;-1.966;2023-09-07T00:22:01;10.35;;;8.80;;
61590;SDS011;71994;52.410;-1.966;2023-09-07T00:25:08;10.32;;;8.82;;
61590;SDS011;71994;52.410;-1.966;2023-09-07T00:28:14;11.80;;;9.05;;
61590;SDS011;71994;52.410;-1.966;2023-09-07T00:31:25;11.52;;;8.82;;
61590;SDS011;71994;52.410;-1.966;2023-09-07T00:34:31;13.00;;;10.02;;
61590;SDS011;71994;52.410;-1.966;2023-09-07T00:37:39;13.60;;;9.32;;
61590;SDS011;71994;52.410;-1.966;2023-09-07T00:40:46;13.15;;;10.02;;
61590;SDS011;71994;52.410;-1.966;2023-09-07T00:43:53;11.70;;;9.20;;
61590;SDS011;71994;52.410;-1.966;2023-09-07T03:23:38;9.60;;;8.60;;
61590;SDS011;71994;52.410;-1.966;2023-09-07T03:27:02;11.55;;;9.20;;
61590;SDS011;71994;52.410;-1.966;2023-09-07T03:30:08;9.90;;;8.55;;
61590;SDS011;71994;52.410;-1.966;2023-09-07T03:33:15;8.70;;;7.80;;
61590;SDS011;71994;52.410;-1.966;2023-09-07T03:36:21;12.38;;;8.82;;
61590;SDS011;71994;52.410;-1.966;2023-09-07T03:39:30;9.05;;;8.15;;
61590;SDS011;71994;52.410;-1.966;2023-09-07T03:42:36;10.00;;;7.77;;
61590;SDS011;71994;52.410;-1.966;2023-09-07T03:45:42;9.70;;;8.20;;
61590;SDS011;71994;52.410;-1.966;2023-09-07T03:48:49;8.75;;;7.75;;
61590;SDS011;71994;52.410;-1.966;2023-09-07T03:51:55;10.48;;;7.57;;
61590;SDS011;71994;52.410;-1.966;2023-09-07T03:55:04;9.43;;;8.07;;
61590;SDS011;71994;52.410;-1.966;2023-09-07T03:58:11;9.20;;;7.45;;
61590;SDS011;71994;52.410;-1.966;2023-09-07T04:01:18;9.68;;;8.07;;
61590;SDS011;71994;52.410;-1.966;2023-09-07T04:04:24;8.88;;;7.78;;
61590;SDS011;71994;52.410;-1.966;2023-09-07T04:07:30;8.45;;;7.55;;
61590;SDS011;71994;52.410;-1.966;2023-09-07T04:10:39;12.30;;;7.30;;
61590;SDS011;71994;52.410;-1.966;2023-09-07T04:13:46;8.20;;;7.30;;
61590;SDS011;71994;52.410;-1.966;2023-09-07T04:16:52;7.75;;;6.72;;
61590;SDS011;71994;52.410;-1.966;2023-09-07T04:19:58;8.45;;;6.85;;
61590;SDS011;71994;52.410;-1.966;2023-09-07T04:23:06;8.02;;;6.97;;
61590;SDS011;71994;52.410;-1.966;2023-09-07T04:26:15;8.38;;;6.93;;
61590;SDS011;71994;52.410;-1.966;2023-09-07T04:29:21;9.73;;;6.73;;
61590;SDS011;71994;52.410;-1.966;2023-09-07T04:32:27;8.73;;;6.82;;
61590;SDS011;71994;52.410;-1.966;2023-09-07T04:35:34;8.65;;;6.93;;
61590;SDS011;71994;52.410;-1.966;2023-09-07T04:38:40;7.70;;;6.53;;
61590;SDS011;71994;52.410;-1.966;2023-09-07T04:41:49;8.75;;;7.00;;
61590;SDS011;71994;52.410;-1.966;2023-09-07T04:44:55;6.73;;;6.00;;
61590;SDS011;71994;52.410;-1.966;2023-09-07T04:48:02;7.93;;;6.70;;
61590;SDS011;71994;52.410;-1.966;2023-09-07T04:51:09;7.57;;;6.75;;
61590;SDS011;71994;52.410;-1.966;2023-09-07T04:54:16;8.18;;;7.10;;
61590;SDS011;71994;52.410;-1.966;2023-09-07T04:57:25;8.10;;;6.40;;
61590;SDS011;71994;52.410;-1.966;2023-09-07T05:00:32;8.77;;;6.78;;
61590;SDS011;71994;52.410;-1.966;2023-09-07T05:03:38;7.28;;;6.57;;
61590;SDS011;71994;52.410;-1.966;2023-09-07T05:06:45;7.47;;;6.68;;
61590;SDS011;71994;52.410;-1.966;2023-09-07T05:09:51;7.68;;;6.53;;
61590;SDS011;71994;52.410;-1.966;2023-09-07T05:13:01;8.70;;;6.63;;
61590;SDS011;71994;52.410;-1.966;2023-09-07T05:16:07;7.40;;;6.63;;
61590;SDS011;71994;52.410;-1.966;2023-09-07T05:19:13;7.00;;;6.30;;
61590;SDS011;71994;52.410;-1.966;2023-09-07T05:22:19;7.15;;;6.45;;
61590;SDS011;71994;52.410;-1.966;2023-09-07T05:25:26;7.38;;;6.50;;
61590;SDS011;71994;52.410;-1.966;2023-09-07T05:28:35;7.53;;;6.70;;
61590;SDS011;71994;52.410;-1.966;2023-09-07T05:31:41;7.43;;;6.33;;
61590;SDS011;71994;52.410;-1.966;2023-09-07T05:34:47;7.65;;;6.65;;
61590;SDS011;71994;52.410;-1.966;2023-09-07T05:37:53;6.95;;;6.22;;
61590;SDS011;71994;52.410;-1.966;2023-09-07T05:41:00;7.35;;;6.57;;
61590;SDS011;71994;52.410;-1.966;2023-09-07T05:44:09;7.32;;;6.20;;
61590;SDS011;71994;52.410;-1.966;2023-09-07T05:47:15;7.00;;;6.30;;
61590;SDS011;71994;52.410;-1.966;2023-09-07T05:50:22;6.90;;;6.20;;
61590;SDS011;71994;52.410;-1.966;2023-09-07T05:53:28;7.22;;;6.20;;
61590;SDS011;71994;52.410;-1.966;2023-09-07T05:56:34;6.35;;;5.75;;
61590;SDS011;71994;52.410;-1.966;2023-09-07T05:59:43;7.20;;;6.28;;
61590;SDS011;71994;52.410;-1.966;2023-09-07T06:02:50;7.82;;;6.43;;
61590;SDS011;71994;52.410;-1.966;2023-09-07T06:05:56;8.30;;;6.57;;
61590;SDS011;71994;52.410;-1.966;2023-09-07T06:09:03;7.38;;;6.00;;
61590;SDS011;71994;52.410;-1.966;2023-09-07T06:12:09;7.75;;;6.07;;
61590;SDS011;71994;52.410;-1.966;2023-09-07T06:15:19;7.75;;;6.35;;
61590;SDS011;71994;52.410;-1.966;2023-09-07T06:18:25;6.88;;;6.05;;
61590;SDS011;71994;52.410;-1.966;2023-09-07T06:21:31;6.45;;;5.85;;
61590;SDS011;71994;52.410;-1.966;2023-09-07T06:24:37;7.00;;;5.93;;
61590;SDS011;71994;52.410;-1.966;2023-09-07T06:27:44;7.25;;;6.50;;
61590;SDS011;71994;52.410;-1.966;2023-09-07T06:30:53;7.63;;;5.93;;
61590;SDS011;71994;52.410;-1.966;2023-09-07T06:33:59;6.83;;;6.07;;
61590;SDS011;71994;52.410;-1.966;2023-09-07T06:37:05;8.52;;;6.03;;
61590;SDS011;71994;52.410;-1.966;2023-09-07T06:40:12;7.07;;;6.03;;
61590;SDS011;71994;52.410;-1.966;2023-09-07T06:43:20;7.38;;;5.82;;
61590;SDS011;71994;52.410;-1.966;2023-09-07T06:46:29;6.75;;;6.00;;
61590;SDS011;71994;52.410;-1.966;2023-09-07T06:49:37;7.70;;;6.23;;
61590;SDS011;71994;52.410;-1.966;2023-09-07T06:52:43;7.32;;;5.85;;
61590;SDS011;71994;52.410;-1.966;2023-09-07T06:55:56;6.63;;;5.93;;
61590;SDS011;71994;52.410;-1.966;2023-09-07T06:59:03;6.93;;;5.82;;
61590;SDS011;71994;52.410;-1.966;2023-09-07T07:02:12;6.75;;;5.80;;
61590;SDS011;71994;52.410;-1.966;2023-09-07T07:05:18;6.07;;;5.17;;
61590;SDS011;71994;52.410;-1.966;2023-09-07T07:08:26;6.60;;;5.90;;
61590;SDS011;71994;52.410;-1.966;2023-09-07T07:11:32;7.25;;;5.82;;
61590;SDS011;71994;52.410;-1.966;2023-09-07T07:14:38;6.60;;;5.72;;
61590;SDS011;71994;52.410;-1.966;2023-09-07T07:17:47;6.15;;;5.35;;
61590;SDS011;71994;52.410;-1.966;2023-09-07T07:20:53;7.00;;;5.60;;
61590;SDS011;71994;52.410;-1.966;2023-09-07T07:24:00;6.50;;;5.78;;
61590;SDS011;71994;52.410;-1.966;2023-09-07T07:27:08;6.35;;;5.68;;
61590;SDS011;71994;52.410;-1.966;2023-09-07T07:30:16;5.97;;;5.38;;
61590;SDS011;71994;52.410;-1.966;2023-09-07T07:33:25;6.75;;;5.63;;
61590;SDS011;71994;52.410;-1.966;2023-09-07T07:36:31;6.97;;;5.82;;
61590;SDS011;71994;52.410;-1.966;2023-09-07T07:39:38;5.85;;;5.25;;
61590;SDS011;71994;52.410;-1.966;2023-09-07T07:42:45;5.65;;;4.88;;
61590;SDS011;71994;52.410;-1.966;2023-09-07T07:45:53;5.82;;;5.22;;
61590;SDS011;71994;52.410;-1.966;2023-09-07T07:49:02;5.80;;;5.20;;
61590;SDS011;71994;52.410;-1.966;2023-09-07T07:52:09;5.60;;;5.10;;
61590;SDS011;71994;52.410;-1.966;2023-09-07T07:55:19;5.40;;;4.82;;
61590;SDS011;71994;52.410;-1.966;2023-09-07T07:58:25;6.18;;;5.35;;
61590;SDS011;71994;52.410;-1.966;2023-09-07T08:01:31;7.03;;;5.47;;
61590;SDS011;71994;52.410;-1.966;2023-09-07T08:04:41;5.82;;;5.00;;
61590;SDS011;71994;52.410;-1.966;2023-09-07T08:07:48;5.53;;;4.63;;
61590;SDS011;71994;52.410;-1.966;2023-09-07T08:10:55;7.10;;;5.25;;
61590;SDS011;71994;52.410;-1.966;2023-09-07T08:14:05;7.10;;;5.20;;
61590;SDS011;71994;52.410;-1.966;2023-09-07T08:17:11;5.63;;;5.00;;
61590;SDS011;71994;52.410;-1.966;2023-09-07T08:20:20;6.07;;;5.15;;
61590;SDS011;71994;52.410;-1.966;2023-09-07T08:23:27;6.15;;;5.45;;
61590;SDS011;71994;52.410;-1.966;2023-09-07T08:26:33;7.60;;;5.25;;
61590;SDS011;71994;52.410;-1.966;2023-09-07T08:29:40;6.15;;;4.93;;
61590;SDS011;71994;52.410;-1.966;2023-09-07T08:32:50;6.20;;;5.60;;
61590;SDS011;71994;52.410;-1.966;2023-09-07T08:36:00;5.70;;;4.68;;
61590;SDS011;71994;52.410;-1.966;2023-09-07T08:39:07;5.93;;;5.32;;
61590;SDS011;71994;52.410;-1.966;2023-09-07T08:42:15;6.75;;;5.30;;
61590;SDS011;71994;52.410;-1.966;2023-09-07T08:45:22;7.18;;;5.28;;
61590;SDS011;71994;52.410;-1.966;2023-09-07T08:48:31;7.35;;;4.95;;
61590;SDS011;71994;52.410;-1.966;2023-09-07T08:51:41;8.15;;;5.20;;
61590;SDS011;71994;52.410;-1.966;2023-09-07T08:54:47;6.15;;;4.78;;
61590;SDS011;71994;52.410;-1.966;2023-09-07T08:57:54;5.75;;;5.07;;
61590;SDS011;71994;52.410;-1.966;2023-09-07T09:01:01;5.13;;;4.63;;
61590;SDS011;71994;52.410;-1.966;2023-09-07T09:04:07;6.07;;;5.07;;
61590;SDS011;71994;52.410;-1.966;2023-09-07T09:07:17;7.25;;;5.10;;
61590;SDS011;71994;52.410;-1.966;2023-09-07T09:10:23;6.05;;;4.82;;
61590;SDS011;71994;52.410;-1.966;2023-09-07T09:13:29;6.78;;;5.20;;
61590;SDS011;71994;52.410;-1.966;2023-09-07T09:16:36;6.53;;;5.43;;
61590;SDS011;71994;52.410;-1.966;2023-09-07T09:19:42;5.70;;;5.10;;
61590;SDS011;71994;52.410;-1.966;2023-09-07T09:22:54;5.70;;;4.93;;
61590;SDS011;71994;52.410;-1.966;2023-09-07T09:26:02;5.65;;;5.05;;
61590;SDS011;71994;52.410;-1.966;2023-09-07T09:29:09;6.20;;;4.85;;
61590;SDS011;71994;52.410;-1.966;2023-09-07T09:32:17;6.22;;;4.80;;
61590;SDS011;71994;52.410;-1.966;2023-09-07T09:35:25;6.03;;;4.80;;
61590;SDS011;71994;52.410;-1.966;2023-09-07T09:38:35;5.43;;;4.93;;
61590;SDS011;71994;52.410;-1.966;2023-09-07T09:41:41;6.15;;;4.97;;
61590;SDS011;71994;52.410;-1.966;2023-09-07T09:44:48;5.88;;;4.97;;
61590;SDS011;71994;52.410;-1.966;2023-09-07T09:47:56;5.40;;;4.72;;
61590;SDS011;71994;52.410;-1.966;2023-09-07T09:51:03;5.75;;;4.88;;
61590;SDS011;71994;52.410;-1.966;2023-09-07T09:54:12;5.75;;;5.07;;
61590;SDS011;71994;52.410;-1.966;2023-09-07T09:57:18;5.60;;;4.97;;
61590;SDS011;71994;52.410;-1.966;2023-09-07T10:00:25;5.80;;;5.00;;
61590;SDS011;71994;52.410;-1.966;2023-09-07T10:03:33;5.13;;;4.63;;
61590;SDS011;71994;52.410;-1.966;2023-09-07T10:06:49;5.50;;;4.97;;
61590;SDS011;71994;52.410;-1.966;2023-09-07T15:10:43;5.85;;;4.80;;
61590;SDS011;71994;52.410;-1.966;2023-09-07T15:14:18;5.13;;;4.63;;
61590;SDS011;71994;52.410;-1.966;2023-09-07T15:17:24;4.65;;;4.25;;
61590;SDS011;71994;52.410;-1.966;2023-09-07T15:20:31;4.30;;;3.90;;
61590;SDS011;71994;52.410;-1.966;2023-09-07T15:23:37;4.95;;;4.45;;
61590;SDS011;71994;52.410;-1.966;2023-09-07T15:26:47;4.75;;;4.25;;
61590;SDS011;71994;52.410;-1.966;2023-09-07T15:29:54;5.75;;;4.07;;
61590;SDS011;71994;52.410;-1.966;2023-09-07T15:33:00;4.35;;;3.95;;
61590;SDS011;71994;52.410;-1.966;2023-09-07T15:36:08;4.30;;;3.90;;
61590;SDS011;71994;52.410;-1.966;2023-09-07T15:39:18;4.15;;;3.75;;
61590;SDS011;71994;52.410;-1.966;2023-09-07T15:42:28;4.65;;;3.85;;
61590;SDS011;71994;52.410;-1.966;2023-09-07T15:45:34;4.33;;;3.93;;
61590;SDS011;71994;52.410;-1.966;2023-09-07T15:48:47;4.35;;;3.95;;
61590;SDS011;71994;52.410;-1.966;2023-09-07T15:51:53;4.50;;;4.03;;
61590;SDS011;71994;52.410;-1.966;2023-09-07T15:55:00;4.25;;;3.85;;
61590;SDS011;71994;52.410;-1.966;2023-09-07T15:58:09;3.72;;;3.42;;
61590;SDS011;71994;52.410;-1.966;2023-09-07T16:01:16;3.95;;;3.65;;
61590;SDS011;71994;52.410;-1.966;2023-09-07T16:04:23;4.38;;;3.90;;
61590;SDS011;71994;52.410;-1.966;2023-09-07T16:07:29;3.95;;;3.55;;
61590;SDS011;71994;52.410;-1.966;2023-09-07T16:10:35;4.15;;;3.75;;
61590;SDS011;71994;52.410;-1.966;2023-09-07T16:13:44;4.10;;;3.70;;
61590;SDS011;71994;52.410;-1.966;2023-09-07T16:16:51;4.20;;;3.80;;
61590;SDS011;71994;52.410;-1.966;2023-09-07T16:19:57;3.95;;;3.60;;
61590;SDS011;71994;52.410;-1.966;2023-09-07T16:23:03;4.22;;;3.83;;
61590;SDS011;71994;52.410;-1.966;2023-09-07T16:26:12;4.20;;;3.80;;
61590;SDS011;71994;52.410;-1.966;2023-09-07T16:29:21;3.85;;;3.55;;
61590;SDS011;71994;52.410;-1.966;2023-09-07T16:32:27;3.80;;;3.27;;
61590;SDS011;71994;52.410;-1.966;2023-09-07T16:35:34;4.20;;;3.67;;
61590;SDS011;71994;52.410;-1.966;2023-09-07T16:38:40;4.15;;;3.75;;
61590;SDS011;71994;52.410;-1.966;2023-09-07T16:41:46;4.40;;;4.00;;
61590;SDS011;71994;52.410;-1.966;2023-09-07T16:44:55;6.68;;;3.97;;
61590;SDS011;71994;52.410;-1.966;2023-09-07T16:48:02;4.93;;;3.60;;
61590;SDS011;71994;52.410;-1.966;2023-09-07T16:51:08;4.93;;;3.60;;
61590;SDS011;71994;52.410;-1.966;2023-09-07T16:54:15;4.05;;;3.65;;
61590;SDS011;71994;52.410;-1.966;2023-09-07T16:57:21;4.15;;;3.78;;
61590;SDS011;71994;52.410;-1.966;2023-09-07T17:00:31;3.97;;;3.67;;
61590;SDS011;71994;52.410;-1.966;2023-09-07T17:07:09;4.18;;;3.78;;
61590;SDS011;71994;52.410;-1.966;2023-09-07T17:10:15;3.83;;;3.53;;
61590;SDS011;71994;52.410;-1.966;2023-09-07T17:13:21;4.53;;;3.75;;
61590;SDS011;71994;52.410;-1.966;2023-09-07T17:16:39;4.70;;;3.83;;
61590;SDS011;71994;52.410;-1.966;2023-09-07T17:19:48;4.30;;;3.90;;
61590;SDS011;71994;52.410;-1.966;2023-09-07T17:22:54;4.93;;;3.75;;
61590;SDS011;71994;52.410;-1.966;2023-09-07T17:26:02;4.32;;;3.47;;
61590;SDS011;71994;52.410;-1.966;2023-09-07T17:29:09;4.03;;;3.63;;
61590;SDS011;71994;52.410;-1.966;2023-09-07T17:32:20;4.73;;;3.90;;
61590;SDS011;71994;52.410;-1.966;2023-09-07T17:35:27;4.30;;;3.83;;
61590;SDS011;71994;52.410;-1.966;2023-09-07T17:38:34;3.88;;;3.47;;
61590;SDS011;71994;52.410;-1.966;2023-09-07T17:41:43;4.07;;;3.50;;
61590;SDS011;71994;52.410;-1.966;2023-09-07T17:44:49;4.38;;;3.80;;
61590;SDS011;71994;52.410;-1.966;2023-09-07T17:47:58;4.63;;;3.65;;
61590;SDS011;71994;52.410;-1.966;2023-09-07T17:51:06;4.32;;;3.60;;
61590;SDS011;71994;52.410;-1.966;2023-09-07T17:54:13;4.15;;;3.60;;
61590;SDS011;71994;52.410;-1.966;2023-09-07T17:57:19;3.97;;;3.67;;
61590;SDS011;71994;52.410;-1.966;2023-09-07T18:00:25;3.83;;;3.50;;
61590;SDS011;71994;52.410;-1.966;2023-09-07T18:03:35;4.30;;;3.40;;
61590;SDS011;71994;52.410;-1.966;2023-09-07T18:06:41;3.88;;;3.50;;
61590;SDS011;71994;52.410;-1.966;2023-09-07T18:09:47;4.07;;;3.67;;
61590;SDS011;71994;52.410;-1.966;2023-09-07T18:12:57;4.10;;;3.70;;
61590;SDS011;71994;52.410;-1.966;2023-09-07T18:16:03;3.85;;;3.55;;
61590;SDS011;71994;52.410;-1.966;2023-09-07T18:19:12;4.55;;;3.65;;
61590;SDS011;71994;52.410;-1.966;2023-09-07T18:22:19;4.43;;;3.92;;
61590;SDS011;71994;52.410;-1.966;2023-09-07T18:25:25;4.28;;;3.88;;
61590;SDS011;71994;52.410;-1.966;2023-09-07T18:28:31;4.28;;;3.67;;
61590;SDS011;71994;52.410;-1.966;2023-09-07T18:31:40;3.65;;;3.35;;
61590;SDS011;71994;52.410;-1.966;2023-09-07T18:34:49;5.65;;;3.70;;
61590;SDS011;71994;52.410;-1.966;2023-09-07T18:37:55;3.72;;;3.42;;
61590;SDS011;71994;52.410;-1.966;2023-09-07T18:41:02;3.78;;;3.38;;
61590;SDS011;71994;52.410;-1.966;2023-09-07T18:44:10;4.10;;;3.70;;
61590;SDS011;71994;52.410;-1.966;2023-09-07T18:47:16;3.85;;;3.55;;
61590;SDS011;71994;52.410;-1.966;2023-09-07T18:50:27;4.50;;;4.03;;
61590;SDS011;71994;52.410;-1.966;2023-09-07T18:53:33;3.88;;;3.42;;
61590;SDS011;71994;52.410;-1.966;2023-09-07T18:56:40;4.10;;;3.70;;
61590;SDS011;71994;52.410;-1.966;2023-09-07T18:59:46;3.70;;;3.40;;
61590;SDS011;71994;52.410;-1.966;2023-09-07T19:02:54;3.75;;;3.45;;
61590;SDS011;71994;52.410;-1.966;2023-09-07T19:06:04;3.88;;;3.58;;
61590;SDS011;71994;52.410;-1.966;2023-09-07T19:09:10;4.10;;;3.70;;
61590;SDS011;71994;52.410;-1.966;2023-09-07T19:12:17;4.22;;;3.60;;
61590;SDS011;71994;52.410;-1.966;2023-09-07T19:15:26;4.35;;;3.95;;
61590;SDS011;71994;52.410;-1.966;2023-09-07T19:18:32;4.20;;;3.72;;
61590;SDS011;71994;52.410;-1.966;2023-09-07T19:21:44;3.80;;;3.50;;
61590;SDS011;71994;52.410;-1.966;2023-09-07T19:24:53;4.30;;;3.63;;
61590;SDS011;71994;52.410;-1.966;2023-09-07T19:27:59;4.10;;;3.70;;
61590;SDS011;71994;52.410;-1.966;2023-09-07T19:31:09;4.22;;;3.83;;
61590;SDS011;71994;52.410;-1.966;2023-09-07T19:34:16;3.97;;;3.67;;
61590;SDS011;71994;52.410;-1.966;2023-09-07T19:37:27;3.97;;;3.67;;
61590;SDS011;71994;52.410;-1.966;2023-09-07T19:40:33;3.80;;;3.40;;
61590;SDS011;71994;52.410;-1.966;2023-09-07T19:43:41;4.00;;;3.60;;
61590;SDS011;71994;52.410;-1.966;2023-09-07T19:46:54;4.10;;;3.70;;
61590;SDS011;71994;52.410;-1.966;2023-09-07T19:50:03;3.90;;;3.42;;
61590;SDS011;71994;52.410;-1.966;2023-09-07T19:53:12;4.38;;;3.97;;
61590;SDS011;71994;52.410;-1.966;2023-09-07T19:56:19;4.30;;;3.85;;
61590;SDS011;71994;52.410;-1.966;2023-09-07T19:59:33;4.75;;;4.00;;
61590;SDS011;71994;52.410;-1.966;2023-09-07T20:02:39;4.20;;;3.80;;
61590;SDS011;71994;52.410;-1.966;2023-09-07T20:05:46;4.28;;;3.88;;
61590;SDS011;71994;52.410;-1.966;2023-09-07T20:08:55;4.13;;;3.72;;
61590;SDS011;71994;52.410;-1.966;2023-09-07T20:12:01;4.25;;;3.80;;
61590;SDS011;71994;52.410;-1.966;2023-09-07T20:15:08;4.07;;;3.67;;
61590;SDS011;71994;52.410;-1.966;2023-09-07T20:18:17;4.25;;;3.85;;
61590;SDS011;71994;52.410;-1.966;2023-09-07T20:21:23;4.68;;;4.13;;
61590;SDS011;71994;52.410;-1.966;2023-09-07T20:24:32;4.47;;;3.78;;
61590;SDS011;71994;52.410;-1.966;2023-09-07T20:27:38;5.73;;;4.23;;
61590;SDS011;71994;52.410;-1.966;2023-09-07T20:30:45;4.32;;;3.92;;
61590;SDS011;71994;52.410;-1.966;2023-09-07T20:33:51;4.63;;;3.92;;
61590;SDS011;71994;52.410;-1.966;2023-09-07T20:36:57;4.88;;;3.80;;
61590;SDS011;71994;52.410;-1.966;2023-09-07T20:40:10;4.13;;;3.72;;
61590;SDS011;71994;52.410;-1.966;2023-09-07T20:43:17;6.07;;;4.43;;
61590;SDS011;71994;52.410;-1.966;2023-09-07T20:46:31;5.80;;;4.03;;
61590;SDS011;71994;52.410;-1.966;2023-09-07T20:49:37;4.75;;;4.32;;
61590;SDS011;71994;52.410;-1.966;2023-09-07T20:52:44;4.53;;;3.72;;
61590;SDS011;71994;52.410;-1.966;2023-09-07T20:55:56;6.20;;;4.22;;
61590;SDS011;71994;52.410;-1.966;2023-09-07T20:59:02;4.15;;;3.75;;
61590;SDS011;71994;52.410;-1.966;2023-09-07T21:02:08;5.32;;;4.43;;
61590;SDS011;71994;52.410;-1.966;2023-09-07T21:05:15;4.45;;;4.05;;
61590;SDS011;71994;52.410;-1.966;2023-09-07T21:08:21;4.60;;;4.13;;
61590;SDS011;71994;52.410;-1.966;2023-09-07T21:11:33;4.50;;;4.10;;
61590;SDS011;71994;52.410;-1.966;2023-09-07T21:14:39;5.70;;;3.95;;
61590;SDS011;71994;52.410;-1.966;2023-09-07T21:17:46;4.90;;;4.40;;
61590;SDS011;71994;52.410;-1.966;2023-09-07T21:20:55;5.47;;;4.80;;
61590;SDS011;71994;52.410;-1.966;2023-09-07T21:24:07;5.35;;;4.47;;
61590;SDS011;71994;52.410;-1.966;2023-09-07T21:27:16;5.22;;;4.50;;
61590;SDS011;71994;52.410;-1.966;2023-09-07T21:30:22;4.93;;;4.43;;
61590;SDS011;71994;52.410;-1.966;2023-09-07T21:33:29;4.97;;;4.43;;
61590;SDS011;71994;52.410;-1.966;2023-09-07T21:36:36;5.10;;;4.47;;
61590;SDS011;71994;52.410;-1.966;2023-09-07T21:39:45;5.55;;;5.05;;
61590;SDS011;71994;52.410;-1.966;2023-09-07T21:46:01;5.20;;;4.70;;
61590;SDS011;71994;52.410;-1.966;2023-09-07T21:49:08;5.10;;;4.60;;
61590;SDS011;71994;52.410;-1.966;2023-09-07T21:52:17;5.13;;;4.63;;
61590;SDS011;71994;52.410;-1.966;2023-09-07T21:55:23;6.93;;;4.88;;
61590;SDS011;71994;52.410;-1.966;2023-09-07T21:58:35;6.33;;;4.87;;
61590;SDS011;71994;52.410;-1.966;2023-09-07T22:01:41;5.20;;;4.70;;
61590;SDS011;71994;52.410;-1.966;2023-09-07T22:04:48;5.80;;;5.07;;
61590;SDS011;71994;52.410;-1.966;2023-09-07T22:07:58;6.40;;;5.00;;
61590;SDS011;71994;52.410;-1.966;2023-09-07T22:11:04;5.50;;;5.00;;
61590;SDS011;71994;52.410;-1.966;2023-09-07T22:14:16;6.20;;;5.60;;
61590;SDS011;71994;52.410;-1.966;2023-09-07T22:17:22;5.93;;;5.32;;
61590;SDS011;71994;52.410;-1.966;2023-09-07T22:20:29;8.38;;;5.97;;
61590;SDS011;71994;52.410;-1.966;2023-09-07T22:23:36;6.40;;;5.80;;
61590;SDS011;71994;52.410;-1.966;2023-09-07T22:26:42;6.05;;;5.35;;
61590;SDS011;71994;52.410;-1.966;2023-09-07T22:29:54;6.72;;;5.75;;
61590;SDS011;71994;52.410;-1.966;2023-09-07T22:33:00;6.97;;;5.50;;
61590;SDS011;71994;52.410;-1.966;2023-09-07T22:36:07;6.18;;;5.57;;
61590;SDS011;71994;52.410;-1.966;2023-09-07T22:39:14;6.07;;;5.47;;
61590;SDS011;71994;52.410;-1.966;2023-09-07T22:42:20;6.32;;;5.72;;
61590;SDS011;71994;52.410;-1.966;2023-09-07T22:45:31;8.50;;;5.72;;
61590;SDS011;71994;52.410;-1.966;2023-09-07T22:48:38;6.20;;;5.60;;
61590;SDS011;71994;52.410;-1.966;2023-09-07T22:51:45;6.78;;;5.70;;
61590;SDS011;71994;52.410;-1.966;2023-09-07T22:54:51;6.18;;;5.57;;
61590;SDS011;71994;52.410;-1.966;2023-09-07T22:57:57;6.60;;;5.57;;
61590;SDS011;71994;52.410;-1.966;2023-09-07T23:01:06;7.38;;;5.85;;
61590;SDS011;71994;52.410;-1.966;2023-09-07T23:04:13;8.38;;;5.90;;
61590;SDS011;71994;52.410;-1.966;2023-09-07T23:07:19;6.60;;;5.88;;
61590;SDS011;71994;52.410;-1.966;2023-09-07T23:10:26;6.50;;;5.90;;
61590;SDS011;71994;52.410;-1.966;2023-09-07T23:13:33;6.55;;;5.45;;
61590;SDS011;71994;52.410;-1.966;2023-09-07T23:16:42;6.38;;;5.70;;
61590;SDS011;71994;52.410;-1.966;2023-09-07T23:19:51;7.53;;;6.07;;
61590;SDS011;71994;52.410;-1.966;2023-09-07T23:22:57;6.43;;;5.75;;
61590;SDS011;71994;52.410;-1.966;2023-09-07T23:26:03;7.82;;;5.95;;
61590;SDS011;71994;52.410;-1.966;2023-09-07T23:29:10;7.25;;;6.55;;
61590;SDS011;71994;52.410;-1.966;2023-09-07T23:32:19;6.70;;;6.00;;
61590;SDS011;71994;52.410;-1.966;2023-09-07T23:35:26;7.15;;;6.40;;
61590;SDS011;71994;52.410;-1.966;2023-09-07T23:38:32;7.03;;;6.32;;
61590;SDS011;71994;52.410;-1.966;2023-09-07T23:41:38;6.82;;;6.13;;
61590;SDS011;71994;52.410;-1.966;2023-09-07T23:44:45;6.90;;;5.57;;
61590;SDS011;71994;52.410;-1.966;2023-09-07T23:47:54;6.45;;;5.85;;
61590;SDS011;71994;52.410;-1.966;2023-09-07T23:51:00;8.07;;;6.27;;
61590;SDS011;71994;52.410;-1.966;2023-09-07T23:54:06;6.57;;;5.90;;
61590;SDS011;71994;52.410;-1.966;2023-09-07T23:57:12;6.95;;;6.20;;
